sensor_id;sensor_type;location;lat;lon;timestamp;temperature;humidity
31309;DHT22;17936;52.446;10.840;2022-10-04T00:01:58;10.70;99.90
31309;DHT22;17936;52.446;10.840;2022-10-04T00:04:50;10.70;99.90
31309;DHT22;17936;52.446;10.840;2022-10-04T00:07:15;10.70;99.90
31309;DHT22;17936;52.446;10.840;2022-10-04T00:09:48;10.80;99.90
31309;DHT22;17936;52.446;10.840;2022-10-04T00:12:23;10.70;99.90
31309;DHT22;17936;52.446;10.840;2022-10-04T00:14:52;10.70;99.90
31309;DHT22;17936;52.446;10.840;2022-10-04T00:17:22;10.70;99.90
31309;DHT22;17936;52.446;10.840;2022-10-04T00:19:51;10.70;99.90
31309;DHT22;17936;52.446;10.840;2022-10-04T00:22:25;10.70;99.90
31309;DHT22;17936;52.446;10.840;2022-10-04T00:27:32;10.70;99.90
31309;DHT22;17936;52.446;10.840;2022-10-04T00:43:27;10.60;99.90
31309;DHT22;17936;52.446;10.840;2022-10-04T00:46:02;10.50;99.90
31309;DHT22;17936;52.446;10.840;2022-10-04T00:48:37;10.50;99.90
31309;DHT22;17936;52.446;10.840;2022-10-04T00:51:26;10.50;99.90
31309;DHT22;17936;52.446;10.840;2022-10-04T00:57:06;10.40;99.90
31309;DHT22;17936;52.446;10.840;2022-10-04T00:59:38;10.40;99.90
31309;DHT22;17936;52.446;10.840;2022-10-04T01:02:19;10.40;99.90
31309;DHT22;17936;52.446;10.840;2022-10-04T01:07:41;10.40;99.90
31309;DHT22;17936;52.446;10.840;2022-10-04T01:10:12;10.40;99.90
31309;DHT22;17936;52.446;10.840;2022-10-04T01:12:53;10.40;99.90
31309;DHT22;17936;52.446;10.840;2022-10-04T01:18:06;10.30;99.90
31309;DHT22;17936;52.446;10.840;2022-10-04T01:20:37;10.30;99.90
31309;DHT22;17936;52.446;10.840;2022-10-04T01:23:04;10.30;99.90
31309;DHT22;17936;52.446;10.840;2022-10-04T01:25:46;10.20;99.90
31309;DHT22;17936;52.446;10.840;2022-10-04T01:28:13;10.20;99.90
31309;DHT22;17936;52.446;10.840;2022-10-04T01:30:38;10.20;99.90
31309;DHT22;17936;52.446;10.840;2022-10-04T01:33:04;10.20;99.90
31309;DHT22;17936;52.446;10.840;2022-10-04T01:35:31;10.30;99.90
31309;DHT22;17936;52.446;10.840;2022-10-04T01:38:02;10.20;99.90
31309;DHT22;17936;52.446;10.840;2022-10-04T01:40:31;10.20;99.90
31309;DHT22;17936;52.446;10.840;2022-10-04T01:43:01;10.20;99.90
31309;DHT22;17936;52.446;10.840;2022-10-04T01:45:39;10.20;99.90
31309;DHT22;17936;52.446;10.840;2022-10-04T01:48:11;10.20;99.90
31309;DHT22;17936;52.446;10.840;2022-10-04T01:50:45;10.20;99.90
31309;DHT22;17936;52.446;10.840;2022-10-04T01:53:23;10.20;99.90
31309;DHT22;17936;52.446;10.840;2022-10-04T01:55:53;10.20;99.90
31309;DHT22;17936;52.446;10.840;2022-10-04T01:58:26;10.20;99.90
31309;DHT22;17936;52.446;10.840;2022-10-04T02:01:08;10.20;99.90
31309;DHT22;17936;52.446;10.840;2022-10-04T02:03:41;10.20;99.90
31309;DHT22;17936;52.446;10.840;2022-10-04T02:06:09;10.20;99.90
31309;DHT22;17936;52.446;10.840;2022-10-04T02:08:38;10.30;99.90
31309;DHT22;17936;52.446;10.840;2022-10-04T02:11:07;10.20;99.90
31309;DHT22;17936;52.446;10.840;2022-10-04T02:13:36;10.30;99.90
31309;DHT22;17936;52.446;10.840;2022-10-04T02:16:03;10.20;99.90
31309;DHT22;17936;52.446;10.840;2022-10-04T02:18:36;10.30;99.90
31309;DHT22;17936;52.446;10.840;2022-10-04T02:21:04;10.30;99.90
31309;DHT22;17936;52.446;10.840;2022-10-04T02:23:31;10.30;99.90
31309;DHT22;17936;52.446;10.840;2022-10-04T02:25:57;10.30;99.90
31309;DHT22;17936;52.446;10.840;2022-10-04T02:28:23;10.30;99.90
31309;DHT22;17936;52.446;10.840;2022-10-04T02:30:51;10.30;99.90
31309;DHT22;17936;52.446;10.840;2022-10-04T02:33:44;10.40;99.90
31309;DHT22;17936;52.446;10.840;2022-10-04T02:36:10;10.40;99.90
31309;DHT22;17936;52.446;10.840;2022-10-04T02:38:43;10.40;99.90
31309;DHT22;17936;52.446;10.840;2022-10-04T02:41:31;10.40;99.90
31309;DHT22;17936;52.446;10.840;2022-10-04T02:47:12;10.50;99.90
31309;DHT22;17936;52.446;10.840;2022-10-04T02:49:53;10.50;99.90
31309;DHT22;17936;52.446;10.840;2022-10-04T02:52:32;10.50;99.90
31309;DHT22;17936;52.446;10.840;2022-10-04T02:55:24;10.50;99.90
31309;DHT22;17936;52.446;10.840;2022-10-04T02:57:52;10.50;99.90
31309;DHT22;17936;52.446;10.840;2022-10-04T03:00:22;10.50;99.90
31309;DHT22;17936;52.446;10.840;2022-10-04T03:03:09;10.50;99.90
31309;DHT22;17936;52.446;10.840;2022-10-04T03:05:37;10.50;99.90
31309;DHT22;17936;52.446;10.840;2022-10-04T03:08:04;10.50;99.90
31309;DHT22;17936;52.446;10.840;2022-10-04T03:10:30;10.60;99.90
31309;DHT22;17936;52.446;10.840;2022-10-04T03:12:56;10.50;99.90
31309;DHT22;17936;52.446;10.840;2022-10-04T03:15:24;10.60;99.90
31309;DHT22;17936;52.446;10.840;2022-10-04T03:17:51;10.60;99.90
31309;DHT22;17936;52.446;10.840;2022-10-04T03:20:17;10.50;99.90
31309;DHT22;17936;52.446;10.840;2022-10-04T03:22:48;10.60;99.90
31309;DHT22;17936;52.446;10.840;2022-10-04T03:25:21;10.60;99.90
31309;DHT22;17936;52.446;10.840;2022-10-04T03:27:47;10.60;99.90
31309;DHT22;17936;52.446;10.840;2022-10-04T03:30:14;10.50;99.90
31309;DHT22;17936;52.446;10.840;2022-10-04T03:32:41;10.60;99.90
31309;DHT22;17936;52.446;10.840;2022-10-04T03:35:27;10.60;99.90
31309;DHT22;17936;52.446;10.840;2022-10-04T03:37:55;10.60;99.90
31309;DHT22;17936;52.446;10.840;2022-10-04T03:40:26;10.60;99.90
31309;DHT22;17936;52.446;10.840;2022-10-04T03:42:52;10.60;99.90
31309;DHT22;17936;52.446;10.840;2022-10-04T03:45:20;10.60;99.90
31309;DHT22;17936;52.446;10.840;2022-10-04T03:47:49;10.60;99.90
31309;DHT22;17936;52.446;10.840;2022-10-04T03:52:49;10.60;99.90
31309;DHT22;17936;52.446;10.840;2022-10-04T03:55:16;10.60;99.90
31309;DHT22;17936;52.446;10.840;2022-10-04T03:57:43;10.60;99.90
31309;DHT22;17936;52.446;10.840;2022-10-04T04:00:13;10.60;99.90
31309;DHT22;17936;52.446;10.840;2022-10-04T04:02:41;10.60;99.90
31309;DHT22;17936;52.446;10.840;2022-10-04T04:05:28;10.60;99.90
31309;DHT22;17936;52.446;10.840;2022-10-04T04:08:19;10.60;99.90
31309;DHT22;17936;52.446;10.840;2022-10-04T04:10:51;10.60;99.90
31309;DHT22;17936;52.446;10.840;2022-10-04T04:16:03;10.60;99.90
31309;DHT22;17936;52.446;10.840;2022-10-04T04:18:32;10.60;99.90
31309;DHT22;17936;52.446;10.840;2022-10-04T04:21:01;10.60;99.90
31309;DHT22;17936;52.446;10.840;2022-10-04T04:23:38;10.60;99.90
31309;DHT22;17936;52.446;10.840;2022-10-04T04:26:44;10.50;99.90
31309;DHT22;17936;52.446;10.840;2022-10-04T04:29:12;10.50;99.90
31309;DHT22;17936;52.446;10.840;2022-10-04T04:31:53;10.50;99.90
31309;DHT22;17936;52.446;10.840;2022-10-04T04:34:25;10.50;99.90
31309;DHT22;17936;52.446;10.840;2022-10-04T04:36:57;10.50;99.90
31309;DHT22;17936;52.446;10.840;2022-10-04T04:39:24;10.60;99.90
31309;DHT22;17936;52.446;10.840;2022-10-04T04:42:19;10.60;99.90
31309;DHT22;17936;52.446;10.840;2022-10-04T04:44:54;10.60;99.90
31309;DHT22;17936;52.446;10.840;2022-10-04T04:47:29;10.60;99.90
31309;DHT22;17936;52.446;10.840;2022-10-04T04:50:32;10.60;99.90
31309;DHT22;17936;52.446;10.840;2022-10-04T04:53:06;10.60;99.90
31309;DHT22;17936;52.446;10.840;2022-10-04T04:55:41;10.60;99.90
31309;DHT22;17936;52.446;10.840;2022-10-04T04:58:07;10.70;99.90
31309;DHT22;17936;52.446;10.840;2022-10-04T05:00:36;10.70;99.90
31309;DHT22;17936;52.446;10.840;2022-10-04T05:03:06;10.70;99.90
31309;DHT22;17936;52.446;10.840;2022-10-04T05:05:34;10.70;99.90
31309;DHT22;17936;52.446;10.840;2022-10-04T05:08:12;10.70;99.90
31309;DHT22;17936;52.446;10.840;2022-10-04T05:10:42;10.70;99.90
31309;DHT22;17936;52.446;10.840;2022-10-04T05:13:09;10.70;99.90
31309;DHT22;17936;52.446;10.840;2022-10-04T05:15:38;10.70;99.90
31309;DHT22;17936;52.446;10.840;2022-10-04T05:18:33;10.70;99.90
31309;DHT22;17936;52.446;10.840;2022-10-04T05:21:05;10.70;99.90
31309;DHT22;17936;52.446;10.840;2022-10-04T05:23:33;10.70;99.90
31309;DHT22;17936;52.446;10.840;2022-10-04T05:26:00;10.70;99.90
31309;DHT22;17936;52.446;10.840;2022-10-04T05:28:28;10.70;99.90
31309;DHT22;17936;52.446;10.840;2022-10-04T05:31:06;10.70;99.90
31309;DHT22;17936;52.446;10.840;2022-10-04T05:33:45;10.70;99.90
31309;DHT22;17936;52.446;10.840;2022-10-04T05:36:37;10.70;99.90
31309;DHT22;17936;52.446;10.840;2022-10-04T05:39:26;10.70;99.90
31309;DHT22;17936;52.446;10.840;2022-10-04T05:41:58;10.70;99.90
31309;DHT22;17936;52.446;10.840;2022-10-04T05:44:28;10.70;99.90
31309;DHT22;17936;52.446;10.840;2022-10-04T05:46:58;10.70;99.90
31309;DHT22;17936;52.446;10.840;2022-10-04T05:49:27;10.70;99.90
31309;DHT22;17936;52.446;10.840;2022-10-04T05:51:56;10.80;99.90
31309;DHT22;17936;52.446;10.840;2022-10-04T05:54:27;10.80;99.90
31309;DHT22;17936;52.446;10.840;2022-10-04T05:57:25;10.80;99.90
31309;DHT22;17936;52.446;10.840;2022-10-04T06:03:05;10.90;99.90
31309;DHT22;17936;52.446;10.840;2022-10-04T06:05:46;10.90;99.90
31309;DHT22;17936;52.446;10.840;2022-10-04T06:08:26;11.00;99.90
31309;DHT22;17936;52.446;10.840;2022-10-04T06:11:25;11.00;99.90
31309;DHT22;17936;52.446;10.840;2022-10-04T06:14:26;11.00;99.90
31309;DHT22;17936;52.446;10.840;2022-10-04T06:17:11;11.10;99.90
31309;DHT22;17936;52.446;10.840;2022-10-04T06:22:42;11.20;99.90
31309;DHT22;17936;52.446;10.840;2022-10-04T06:25:23;11.30;99.90
31309;DHT22;17936;52.446;10.840;2022-10-04T06:37:06;11.30;99.90
31309;DHT22;17936;52.446;10.840;2022-10-04T06:42:46;11.40;99.90
31309;DHT22;17936;52.446;10.840;2022-10-04T06:48:18;11.40;99.90
31309;DHT22;17936;52.446;10.840;2022-10-04T06:50:51;11.40;99.90
31309;DHT22;17936;52.446;10.840;2022-10-04T06:53:52;11.50;99.90
31309;DHT22;17936;52.446;10.840;2022-10-04T06:56:53;11.50;99.90
31309;DHT22;17936;52.446;10.840;2022-10-04T06:59:45;11.50;99.90
31309;DHT22;17936;52.446;10.840;2022-10-04T07:02:39;11.60;99.90
31309;DHT22;17936;52.446;10.840;2022-10-04T07:05:27;11.60;99.90
31309;DHT22;17936;52.446;10.840;2022-10-04T07:08:18;11.60;99.90
31309;DHT22;17936;52.446;10.840;2022-10-04T07:10:58;11.70;99.90
31309;DHT22;17936;52.446;10.840;2022-10-04T07:16:03;11.80;99.90
31309;DHT22;17936;52.446;10.840;2022-10-04T07:22:03;11.90;99.90
31309;DHT22;17936;52.446;10.840;2022-10-04T07:27:40;12.10;99.90
31309;DHT22;17936;52.446;10.840;2022-10-04T07:30:14;12.20;99.90
31309;DHT22;17936;52.446;10.840;2022-10-04T07:32:47;12.20;99.90
31309;DHT22;17936;52.446;10.840;2022-10-04T07:35:28;12.30;99.90
31309;DHT22;17936;52.446;10.840;2022-10-04T07:41:00;12.40;99.90
31309;DHT22;17936;52.446;10.840;2022-10-04T07:43:34;12.50;99.90
31309;DHT22;17936;52.446;10.840;2022-10-04T07:46:05;12.70;99.90
31309;DHT22;17936;52.446;10.840;2022-10-04T07:48:39;12.60;99.90
31309;DHT22;17936;52.446;10.840;2022-10-04T07:54:04;12.60;99.90
31309;DHT22;17936;52.446;10.840;2022-10-04T07:56:50;12.70;99.90
31309;DHT22;17936;52.446;10.840;2022-10-04T07:59:36;13.30;99.90
31309;DHT22;17936;52.446;10.840;2022-10-04T08:02:45;13.70;99.90
31309;DHT22;17936;52.446;10.840;2022-10-04T08:05:20;14.10;99.90
31309;DHT22;17936;52.446;10.840;2022-10-04T08:07:57;14.40;99.90
31309;DHT22;17936;52.446;10.840;2022-10-04T08:10:46;14.60;99.90
31309;DHT22;17936;52.446;10.840;2022-10-04T08:13:28;14.90;99.90
31309;DHT22;17936;52.446;10.840;2022-10-04T08:16:01;15.20;99.90
31309;DHT22;17936;52.446;10.840;2022-10-04T08:21:24;15.10;99.90
31309;DHT22;17936;52.446;10.840;2022-10-04T08:26:32;14.40;99.90
31309;DHT22;17936;52.446;10.840;2022-10-04T08:29:08;14.20;99.90
31309;DHT22;17936;52.446;10.840;2022-10-04T08:34:57;14.00;99.90
31309;DHT22;17936;52.446;10.840;2022-10-04T08:37:44;14.10;99.90
31309;DHT22;17936;52.446;10.840;2022-10-04T08:40:43;14.00;99.90
31309;DHT22;17936;52.446;10.840;2022-10-04T08:46:31;14.40;99.90
31309;DHT22;17936;52.446;10.840;2022-10-04T08:49:14;14.90;99.90
31309;DHT22;17936;52.446;10.840;2022-10-04T08:52:06;15.10;99.90
31309;DHT22;17936;52.446;10.840;2022-10-04T09:00:58;15.70;99.90
31309;DHT22;17936;52.446;10.840;2022-10-04T09:06:22;15.70;99.90
31309;DHT22;17936;52.446;10.840;2022-10-04T09:09:35;16.00;99.90
31309;DHT22;17936;52.446;10.840;2022-10-04T09:15:15;16.20;99.90
31309;DHT22;17936;52.446;10.840;2022-10-04T09:18:18;16.20;99.90
31309;DHT22;17936;52.446;10.840;2022-10-04T09:20:58;16.30;99.90
31309;DHT22;17936;52.446;10.840;2022-10-04T09:26:21;16.80;99.90
31309;DHT22;17936;52.446;10.840;2022-10-04T09:29:08;16.70;99.90
31309;DHT22;17936;52.446;10.840;2022-10-04T09:32:08;16.90;99.90
31309;DHT22;17936;52.446;10.840;2022-10-04T09:34:45;17.00;99.90
31309;DHT22;17936;52.446;10.840;2022-10-04T09:43:10;17.00;99.90
31309;DHT22;17936;52.446;10.840;2022-10-04T09:46:13;16.70;99.90
31309;DHT22;17936;52.446;10.840;2022-10-04T09:52:01;17.30;99.90
31309;DHT22;17936;52.446;10.840;2022-10-04T09:54:51;16.90;99.90
31309;DHT22;17936;52.446;10.840;2022-10-04T09:57:44;16.80;99.90
31309;DHT22;17936;52.446;10.840;2022-10-04T10:05:27;16.90;99.90
31309;DHT22;17936;52.446;10.840;2022-10-04T10:08:06;16.20;99.90
31309;DHT22;17936;52.446;10.840;2022-10-04T11:04:42;18.30;99.90
31309;DHT22;17936;52.446;10.840;2022-10-04T11:16:16;18.40;99.90
31309;DHT22;17936;52.446;10.840;2022-10-04T11:22:08;18.50;99.90
31309;DHT22;17936;52.446;10.840;2022-10-04T11:30:20;18.40;99.90
31309;DHT22;17936;52.446;10.840;2022-10-04T11:36:00;18.80;99.90
31309;DHT22;17936;52.446;10.840;2022-10-04T11:39:23;18.80;99.90
31309;DHT22;17936;52.446;10.840;2022-10-04T11:41:54;18.70;99.90
31309;DHT22;17936;52.446;10.840;2022-10-04T11:44:33;18.60;99.90
31309;DHT22;17936;52.446;10.840;2022-10-04T11:47:20;18.50;99.90
31309;DHT22;17936;52.446;10.840;2022-10-04T11:52:50;18.90;99.90
31309;DHT22;17936;52.446;10.840;2022-10-04T11:58:17;17.60;99.90
31309;DHT22;17936;52.446;10.840;2022-10-04T12:01:18;18.20;99.90
31309;DHT22;17936;52.446;10.840;2022-10-04T12:03:58;18.60;99.90
31309;DHT22;17936;52.446;10.840;2022-10-04T12:09:52;18.60;99.90
31309;DHT22;17936;52.446;10.840;2022-10-04T12:12:41;18.60;99.90
31309;DHT22;17936;52.446;10.840;2022-10-04T12:20:51;18.50;99.90
31309;DHT22;17936;52.446;10.840;2022-10-04T12:26:34;18.90;99.90
31309;DHT22;17936;52.446;10.840;2022-10-04T12:31:44;18.90;99.90
31309;DHT22;17936;52.446;10.840;2022-10-04T12:37:05;18.80;99.90
31309;DHT22;17936;52.446;10.840;2022-10-04T12:39:46;18.80;99.90
31309;DHT22;17936;52.446;10.840;2022-10-04T12:45:38;18.40;99.90
31309;DHT22;17936;52.446;10.840;2022-10-04T12:48:46;18.50;99.90
31309;DHT22;17936;52.446;10.840;2022-10-04T12:52:01;18.40;99.90
31309;DHT22;17936;52.446;10.840;2022-10-04T12:54:44;18.60;99.90
31309;DHT22;17936;52.446;10.840;2022-10-04T12:57:36;18.40;99.90
31309;DHT22;17936;52.446;10.840;2022-10-04T13:00:21;18.60;99.90
31309;DHT22;17936;52.446;10.840;2022-10-04T13:03:13;18.50;99.90
31309;DHT22;17936;52.446;10.840;2022-10-04T13:11:56;18.60;99.90
31309;DHT22;17936;52.446;10.840;2022-10-04T13:14:58;18.70;99.90
31309;DHT22;17936;52.446;10.840;2022-10-04T13:23:20;18.60;99.90
31309;DHT22;17936;52.446;10.840;2022-10-04T13:26:10;18.60;99.90
31309;DHT22;17936;52.446;10.840;2022-10-04T13:28:56;18.60;99.90
31309;DHT22;17936;52.446;10.840;2022-10-04T13:34:08;18.60;99.90
31309;DHT22;17936;52.446;10.840;2022-10-04T13:37:00;18.70;99.90
31309;DHT22;17936;52.446;10.840;2022-10-04T13:39:57;18.70;99.90
31309;DHT22;17936;52.446;10.840;2022-10-04T13:42:54;18.70;99.90
31309;DHT22;17936;52.446;10.840;2022-10-04T13:48:40;18.90;99.90
31309;DHT22;17936;52.446;10.840;2022-10-04T13:51:23;19.00;99.90
31309;DHT22;17936;52.446;10.840;2022-10-04T13:54:20;19.00;99.90
31309;DHT22;17936;52.446;10.840;2022-10-04T13:57:41;18.90;99.90
31309;DHT22;17936;52.446;10.840;2022-10-04T14:00:13;19.10;99.90
31309;DHT22;17936;52.446;10.840;2022-10-04T14:10:57;18.70;99.90
31309;DHT22;17936;52.446;10.840;2022-10-04T14:13:52;18.80;99.90
31309;DHT22;17936;52.446;10.840;2022-10-04T14:19:40;18.80;99.90
31309;DHT22;17936;52.446;10.840;2022-10-04T14:25:22;19.00;99.90
31309;DHT22;17936;52.446;10.840;2022-10-04T14:28:13;18.80;99.90
31309;DHT22;17936;52.446;10.840;2022-10-04T14:34:03;19.00;99.90
31309;DHT22;17936;52.446;10.840;2022-10-04T14:39:46;18.70;99.90
31309;DHT22;17936;52.446;10.840;2022-10-04T14:42:35;18.80;99.90
31309;DHT22;17936;52.446;10.840;2022-10-04T14:45:18;19.00;99.90
31309;DHT22;17936;52.446;10.840;2022-10-04T14:48:13;19.00;99.90
31309;DHT22;17936;52.446;10.840;2022-10-04T14:51:05;19.30;99.90
31309;DHT22;17936;52.446;10.840;2022-10-04T14:56:32;18.90;99.90
31309;DHT22;17936;52.446;10.840;2022-10-04T14:59:24;18.90;99.90
31309;DHT22;17936;52.446;10.840;2022-10-04T15:02:18;18.60;99.90
31309;DHT22;17936;52.446;10.840;2022-10-04T15:05:18;18.60;99.90
31309;DHT22;17936;52.446;10.840;2022-10-04T15:11:07;18.90;99.90
31309;DHT22;17936;52.446;10.840;2022-10-04T15:13:38;18.60;99.90
31309;DHT22;17936;52.446;10.840;2022-10-04T15:16:30;18.70;99.90
31309;DHT22;17936;52.446;10.840;2022-10-04T15:22:22;18.70;99.90
31309;DHT22;17936;52.446;10.840;2022-10-04T15:24:52;18.80;99.90
31309;DHT22;17936;52.446;10.840;2022-10-04T15:38:34;18.50;99.90
31309;DHT22;17936;52.446;10.840;2022-10-04T15:41:26;18.40;99.90
31309;DHT22;17936;52.446;10.840;2022-10-04T15:49:28;18.30;99.90
31309;DHT22;17936;52.446;10.840;2022-10-04T15:55:47;18.30;99.90
31309;DHT22;17936;52.446;10.840;2022-10-04T16:01:38;18.00;99.90
31309;DHT22;17936;52.446;10.840;2022-10-04T16:07:58;17.90;99.90
31309;DHT22;17936;52.446;10.840;2022-10-04T16:10:26;17.90;99.90
31309;DHT22;17936;52.446;10.840;2022-10-04T16:13:22;17.80;99.90
31309;DHT22;17936;52.446;10.840;2022-10-04T16:29:32;17.20;99.90
31309;DHT22;17936;52.446;10.840;2022-10-04T16:32:18;17.10;99.90
31309;DHT22;17936;52.446;10.840;2022-10-04T16:34:50;17.00;99.90
31309;DHT22;17936;52.446;10.840;2022-10-04T16:42:54;16.50;99.90
31309;DHT22;17936;52.446;10.840;2022-10-04T17:05:13;15.70;99.90
31309;DHT22;17936;52.446;10.840;2022-10-04T17:08:07;15.70;99.90
31309;DHT22;17936;52.446;10.840;2022-10-04T17:13:35;15.30;99.90
31309;DHT22;17936;52.446;10.840;2022-10-04T17:18:39;14.50;99.90
31309;DHT22;17936;52.446;10.840;2022-10-04T17:21:28;14.50;99.90
31309;DHT22;17936;52.446;10.840;2022-10-04T17:24:20;14.60;99.90
31309;DHT22;17936;52.446;10.840;2022-10-04T17:27:17;14.60;99.90
31309;DHT22;17936;52.446;10.840;2022-10-04T17:30:11;14.00;99.90
31309;DHT22;17936;52.446;10.840;2022-10-04T17:38:40;14.00;99.90
31309;DHT22;17936;52.446;10.840;2022-10-04T17:44:25;13.60;99.90
31309;DHT22;17936;52.446;10.840;2022-10-04T17:49:45;14.00;99.90
31309;DHT22;17936;52.446;10.840;2022-10-04T17:52:40;13.60;99.90
31309;DHT22;17936;52.446;10.840;2022-10-04T17:55:49;13.50;99.90
31309;DHT22;17936;52.446;10.840;2022-10-04T17:58:23;13.50;99.90
31309;DHT22;17936;52.446;10.840;2022-10-04T18:01:02;13.50;99.90
31309;DHT22;17936;52.446;10.840;2022-10-04T18:03:38;13.60;99.90
31309;DHT22;17936;52.446;10.840;2022-10-04T18:06:24;13.60;99.90
31309;DHT22;17936;52.446;10.840;2022-10-04T18:09:09;13.60;99.90
31309;DHT22;17936;52.446;10.840;2022-10-04T18:11:45;13.50;99.90
31309;DHT22;17936;52.446;10.840;2022-10-04T18:17:28;13.30;99.90
31309;DHT22;17936;52.446;10.840;2022-10-04T18:20:24;13.10;99.90
31309;DHT22;17936;52.446;10.840;2022-10-04T18:23:16;13.10;99.90
31309;DHT22;17936;52.446;10.840;2022-10-04T18:25:42;13.10;99.90
31309;DHT22;17936;52.446;10.840;2022-10-04T18:30:56;12.80;99.90
31309;DHT22;17936;52.446;10.840;2022-10-04T18:33:50;12.70;99.90
31309;DHT22;17936;52.446;10.840;2022-10-04T18:36:20;12.80;99.90
31309;DHT22;17936;52.446;10.840;2022-10-04T18:39:03;12.80;99.90
31309;DHT22;17936;52.446;10.840;2022-10-04T18:41:30;12.60;99.90
31309;DHT22;17936;52.446;10.840;2022-10-04T18:44:23;12.70;99.90
31309;DHT22;17936;52.446;10.840;2022-10-04T18:46:58;12.60;99.90
31309;DHT22;17936;52.446;10.840;2022-10-04T18:49:43;12.70;99.90
31309;DHT22;17936;52.446;10.840;2022-10-04T18:52:35;12.40;99.90
31309;DHT22;17936;52.446;10.840;2022-10-04T18:58:23;12.70;99.90
31309;DHT22;17936;52.446;10.840;2022-10-04T19:10:36;12.30;99.90
31309;DHT22;17936;52.446;10.840;2022-10-04T19:13:28;12.20;99.90
31309;DHT22;17936;52.446;10.840;2022-10-04T19:19:01;12.10;99.90
31309;DHT22;17936;52.446;10.840;2022-10-04T19:21:54;12.00;99.90
31309;DHT22;17936;52.446;10.840;2022-10-04T19:24:55;11.90;99.90
31309;DHT22;17936;52.446;10.840;2022-10-04T19:27:31;12.00;99.90
31309;DHT22;17936;52.446;10.840;2022-10-04T19:32:57;11.60;99.90
31309;DHT22;17936;52.446;10.840;2022-10-04T19:35:41;11.80;99.90
31309;DHT22;17936;52.446;10.840;2022-10-04T19:38:19;11.70;99.90
31309;DHT22;17936;52.446;10.840;2022-10-04T19:41:09;11.80;99.90
31309;DHT22;17936;52.446;10.840;2022-10-04T19:43:57;11.80;99.90
31309;DHT22;17936;52.446;10.840;2022-10-04T19:46:37;11.80;99.90
31309;DHT22;17936;52.446;10.840;2022-10-04T19:49:29;11.90;99.90
31309;DHT22;17936;52.446;10.840;2022-10-04T19:54:40;12.00;99.90
31309;DHT22;17936;52.446;10.840;2022-10-04T19:57:11;12.00;99.90
31309;DHT22;17936;52.446;10.840;2022-10-04T19:59:41;11.90;99.90
31309;DHT22;17936;52.446;10.840;2022-10-04T20:02:11;12.00;99.90
31309;DHT22;17936;52.446;10.840;2022-10-04T20:04:37;12.10;99.90
31309;DHT22;17936;52.446;10.840;2022-10-04T20:07:25;12.00;99.90
31309;DHT22;17936;52.446;10.840;2022-10-04T20:10:27;12.10;99.90
31309;DHT22;17936;52.446;10.840;2022-10-04T20:13:15;12.10;99.90
31309;DHT22;17936;52.446;10.840;2022-10-04T20:15:47;12.10;99.90
31309;DHT22;17936;52.446;10.840;2022-10-04T20:26:10;11.90;99.90
31309;DHT22;17936;52.446;10.840;2022-10-04T20:28:39;12.10;99.90
31309;DHT22;17936;52.446;10.840;2022-10-04T20:31:11;12.20;99.90
31309;DHT22;17936;52.446;10.840;2022-10-04T20:34:22;12.30;99.90
31309;DHT22;17936;52.446;10.840;2022-10-04T20:36:48;12.50;99.90
31309;DHT22;17936;52.446;10.840;2022-10-04T20:42:10;12.70;99.90
31309;DHT22;17936;52.446;10.840;2022-10-04T20:47:47;12.80;99.90
31309;DHT22;17936;52.446;10.840;2022-10-04T20:50:32;13.00;99.90
31309;DHT22;17936;52.446;10.840;2022-10-04T20:53:14;12.90;99.90
31309;DHT22;17936;52.446;10.840;2022-10-04T20:55:41;13.00;99.90
31309;DHT22;17936;52.446;10.840;2022-10-04T20:58:28;13.10;99.90
31309;DHT22;17936;52.446;10.840;2022-10-04T21:01:01;13.20;99.90
31309;DHT22;17936;52.446;10.840;2022-10-04T21:03:38;13.20;99.90
31309;DHT22;17936;52.446;10.840;2022-10-04T21:06:05;13.10;99.90
31309;DHT22;17936;52.446;10.840;2022-10-04T21:08:33;13.30;99.90
31309;DHT22;17936;52.446;10.840;2022-10-04T21:11:08;13.10;99.90
31309;DHT22;17936;52.446;10.840;2022-10-04T21:16:47;13.00;99.90
31309;DHT22;17936;52.446;10.840;2022-10-04T21:21:54;13.00;99.90
31309;DHT22;17936;52.446;10.840;2022-10-04T21:24:37;12.90;99.90
31309;DHT22;17936;52.446;10.840;2022-10-04T21:27:05;12.80;99.90
31309;DHT22;17936;52.446;10.840;2022-10-04T21:29:32;12.80;99.90
31309;DHT22;17936;52.446;10.840;2022-10-04T21:31:58;12.80;99.90
31309;DHT22;17936;52.446;10.840;2022-10-04T21:34:24;12.80;99.90
31309;DHT22;17936;52.446;10.840;2022-10-04T21:36:49;12.80;99.90
31309;DHT22;17936;52.446;10.840;2022-10-04T21:39:15;12.80;99.90
31309;DHT22;17936;52.446;10.840;2022-10-04T21:41:40;12.70;99.90
31309;DHT22;17936;52.446;10.840;2022-10-04T21:44:06;12.70;99.90
31309;DHT22;17936;52.446;10.840;2022-10-04T21:46:32;12.70;99.90
31309;DHT22;17936;52.446;10.840;2022-10-04T21:48:57;12.60;99.90
31309;DHT22;17936;52.446;10.840;2022-10-04T21:51:23;12.70;99.90
31309;DHT22;17936;52.446;10.840;2022-10-04T21:53:48;12.70;99.90
31309;DHT22;17936;52.446;10.840;2022-10-04T21:56:13;12.80;99.90
31309;DHT22;17936;52.446;10.840;2022-10-04T21:58:39;12.80;99.90
31309;DHT22;17936;52.446;10.840;2022-10-04T22:01:05;12.80;99.90
31309;DHT22;17936;52.446;10.840;2022-10-04T22:03:31;12.70;99.90
31309;DHT22;17936;52.446;10.840;2022-10-04T22:05:56;12.80;99.90
31309;DHT22;17936;52.446;10.840;2022-10-04T22:08:22;12.80;99.90
31309;DHT22;17936;52.446;10.840;2022-10-04T22:10:47;12.80;99.90
31309;DHT22;17936;52.446;10.840;2022-10-04T22:13:13;12.70;99.90
31309;DHT22;17936;52.446;10.840;2022-10-04T22:15:38;12.60;99.90
31309;DHT22;17936;52.446;10.840;2022-10-04T22:18:04;12.50;99.90
31309;DHT22;17936;52.446;10.840;2022-10-04T22:20:30;12.40;99.90
31309;DHT22;17936;52.446;10.840;2022-10-04T22:22:56;12.30;99.90
31309;DHT22;17936;52.446;10.840;2022-10-04T22:25:23;12.30;99.90
31309;DHT22;17936;52.446;10.840;2022-10-04T22:27:50;12.30;99.90
31309;DHT22;17936;52.446;10.840;2022-10-04T22:30:22;12.30;99.90
31309;DHT22;17936;52.446;10.840;2022-10-04T22:32:48;12.20;99.90
31309;DHT22;17936;52.446;10.840;2022-10-04T22:35:17;12.20;99.90
31309;DHT22;17936;52.446;10.840;2022-10-04T22:37:43;12.30;99.90
31309;DHT22;17936;52.446;10.840;2022-10-04T22:40:20;12.30;99.90
31309;DHT22;17936;52.446;10.840;2022-10-04T22:42:50;12.40;99.90
31309;DHT22;17936;52.446;10.840;2022-10-04T22:45:35;12.40;99.90
31309;DHT22;17936;52.446;10.840;2022-10-04T22:48:08;12.50;99.90
31309;DHT22;17936;52.446;10.840;2022-10-04T22:50:36;12.50;99.90